sensor_id;sensor_type;location;lat;lon;timestamp;pressure;altitude;pressure_sealevel;temperature;humidity
34925;BME280;21130;51.728;8.748;2022-10-22T00:02:12;99873.00;;;9.37;100.00
34925;BME280;21130;51.728;8.748;2022-10-22T00:04:44;99875.19;;;9.35;100.00
34925;BME280;21130;51.728;8.748;2022-10-22T00:07:10;99883.78;;;9.33;100.00
34925;BME280;21130;51.728;8.748;2022-10-22T00:09:37;99882.59;;;9.29;100.00
34925;BME280;21130;51.728;8.748;2022-10-22T00:12:04;99887.28;;;9.28;100.00
34925;BME280;21130;51.728;8.748;2022-10-22T00:14:30;99880.06;;;9.27;100.00
34925;BME280;21130;51.728;8.748;2022-10-22T00:16:57;99882.25;;;9.25;100.00
34925;BME280;21130;51.728;8.748;2022-10-22T00:19:26;99889.69;;;9.25;100.00
34925;BME280;21130;51.728;8.748;2022-10-22T00:21:53;99888.28;;;9.22;100.00
34925;BME280;21130;51.728;8.748;2022-10-22T00:24:19;99893.50;;;9.19;100.00
34925;BME280;21130;51.728;8.748;2022-10-22T00:26:46;99890.97;;;9.17;100.00
34925;BME280;21130;51.728;8.748;2022-10-22T00:29:12;99899.53;;;9.16;100.00
34925;BME280;21130;51.728;8.748;2022-10-22T00:31:39;99905.91;;;9.16;100.00
34925;BME280;21130;51.728;8.748;2022-10-22T00:34:10;99910.84;;;9.14;100.00
34925;BME280;21130;51.728;8.748;2022-10-22T00:36:38;99906.97;;;9.15;100.00
34925;BME280;21130;51.728;8.748;2022-10-22T00:39:05;99909.19;;;9.13;100.00
34925;BME280;21130;51.728;8.748;2022-10-22T00:41:31;99910.25;;;9.12;100.00
34925;BME280;21130;51.728;8.748;2022-10-22T00:43:59;99906.41;;;9.13;100.00
34925;BME280;21130;51.728;8.748;2022-10-22T00:46:27;99911.94;;;9.13;100.00
34925;BME280;21130;51.728;8.748;2022-10-22T00:48:55;99910.94;;;9.19;100.00
34925;BME280;21130;51.728;8.748;2022-10-22T00:51:52;99920.81;;;9.15;100.00
34925;BME280;21130;51.728;8.748;2022-10-22T00:54:19;99923.03;;;9.13;100.00
34925;BME280;21130;51.728;8.748;2022-10-22T00:56:45;99928.56;;;9.13;100.00
34925;BME280;21130;51.728;8.748;2022-10-22T00:59:14;99933.50;;;9.11;100.00
34925;BME280;21130;51.728;8.748;2022-10-22T01:01:41;99935.16;;;9.12;100.00
34925;BME280;21130;51.728;8.748;2022-10-22T01:04:09;99934.09;;;9.13;100.00
34925;BME280;21130;51.728;8.748;2022-10-22T01:06:36;99930.47;;;9.13;100.00
34925;BME280;21130;51.728;8.748;2022-10-22T01:09:11;99924.94;;;9.13;100.00
34925;BME280;21130;51.728;8.748;2022-10-22T01:11:51;99915.19;;;9.10;100.00
34925;BME280;21130;51.728;8.748;2022-10-22T01:14:23;99912.44;;;9.10;100.00
34925;BME280;21130;51.728;8.748;2022-10-22T01:16:56;99913.84;;;9.13;100.00
34925;BME280;21130;51.728;8.748;2022-10-22T01:19:35;99895.91;;;9.15;100.00
34925;BME280;21130;51.728;8.748;2022-10-22T01:22:11;99897.00;;;9.14;100.00
34925;BME280;21130;51.728;8.748;2022-10-22T01:24:52;99888.09;;;9.12;100.00
34925;BME280;21130;51.728;8.748;2022-10-22T01:27:27;99889.81;;;9.13;100.00
34925;BME280;21130;51.728;8.748;2022-10-22T01:30:01;99886.75;;;9.15;100.00
34925;BME280;21130;51.728;8.748;2022-10-22T01:32:30;99884.81;;;9.15;100.00
34925;BME280;21130;51.728;8.748;2022-10-22T01:35:04;99884.34;;;9.18;100.00
34925;BME280;21130;51.728;8.748;2022-10-22T01:37:37;99866.88;;;9.18;100.00
34925;BME280;21130;51.728;8.748;2022-10-22T01:40:06;99874.34;;;9.17;100.00
34925;BME280;21130;51.728;8.748;2022-10-22T01:42:34;99882.66;;;9.17;100.00
34925;BME280;21130;51.728;8.748;2022-10-22T01:45:09;99885.78;;;9.21;100.00
34925;BME280;21130;51.728;8.748;2022-10-22T01:47:41;99883.50;;;9.18;100.00
34925;BME280;21130;51.728;8.748;2022-10-22T01:50:21;99891.03;;;9.22;100.00
34925;BME280;21130;51.728;8.748;2022-10-22T01:53:04;99899.53;;;9.16;100.00
34925;BME280;21130;51.728;8.748;2022-10-22T01:55:39;99887.34;;;9.17;100.00
34925;BME280;21130;51.728;8.748;2022-10-22T01:58:19;99897.00;;;9.14;100.00
34925;BME280;21130;51.728;8.748;2022-10-22T02:00:57;99889.72;;;9.08;100.00
34925;BME280;21130;51.728;8.748;2022-10-22T02:03:28;99886.44;;;9.11;100.00
34925;BME280;21130;51.728;8.748;2022-10-22T02:06:01;99879.81;;;9.12;100.00
34925;BME280;21130;51.728;8.748;2022-10-22T02:08:32;99888.69;;;9.14;100.00
34925;BME280;21130;51.728;8.748;2022-10-22T02:11:01;99893.41;;;9.14;100.00
34925;BME280;21130;51.728;8.748;2022-10-22T02:13:30;99889.88;;;9.18;100.00
34925;BME280;21130;51.728;8.748;2022-10-22T02:16:02;99884.25;;;9.13;100.00
34925;BME280;21130;51.728;8.748;2022-10-22T02:18:31;99881.41;;;9.08;100.00
34925;BME280;21130;51.728;8.748;2022-10-22T02:20:59;99876.34;;;9.05;100.00
34925;BME280;21130;51.728;8.748;2022-10-22T02:23:26;99871.69;;;9.05;100.00
34925;BME280;21130;51.728;8.748;2022-10-22T02:25:59;99873.25;;;9.01;100.00
34925;BME280;21130;51.728;8.748;2022-10-22T02:28:31;99873.03;;;9.03;100.00
34925;BME280;21130;51.728;8.748;2022-10-22T02:31:10;99875.66;;;8.98;100.00
34925;BME280;21130;51.728;8.748;2022-10-22T02:33:42;99879.31;;;8.98;100.00
34925;BME280;21130;51.728;8.748;2022-10-22T02:36:12;99883.97;;;8.98;100.00
34925;BME280;21130;51.728;8.748;2022-10-22T02:38:40;99881.47;;;8.96;100.00
34925;BME280;21130;51.728;8.748;2022-10-22T02:41:07;99888.69;;;8.97;100.00
34925;BME280;21130;51.728;8.748;2022-10-22T02:43:39;99885.66;;;8.99;100.00
34925;BME280;21130;51.728;8.748;2022-10-22T02:46:07;99875.19;;;9.01;100.00
34925;BME280;21130;51.728;8.748;2022-10-22T02:48:34;99872.50;;;9.06;100.00
34925;BME280;21130;51.728;8.748;2022-10-22T02:51:01;99873.94;;;9.08;100.00
34925;BME280;21130;51.728;8.748;2022-10-22T02:53:27;99880.91;;;9.11;100.00
34925;BME280;21130;51.728;8.748;2022-10-22T02:55:54;99887.88;;;9.14;100.00
34925;BME280;21130;51.728;8.748;2022-10-22T02:58:20;99891.47;;;9.14;100.00
34925;BME280;21130;51.728;8.748;2022-10-22T03:00:47;99897.84;;;9.15;100.00
34925;BME280;21130;51.728;8.748;2022-10-22T03:03:15;99898.19;;;9.18;100.00
34925;BME280;21130;51.728;8.748;2022-10-22T03:05:41;99897.34;;;9.18;100.00
34925;BME280;21130;51.728;8.748;2022-10-22T03:08:08;99899.34;;;9.22;100.00
34925;BME280;21130;51.728;8.748;2022-10-22T03:10:34;99899.13;;;9.24;100.00
34925;BME280;21130;51.728;8.748;2022-10-22T03:13:01;99911.63;;;9.26;100.00
34925;BME280;21130;51.728;8.748;2022-10-22T03:15:27;99909.44;;;9.28;100.00
34925;BME280;21130;51.728;8.748;2022-10-22T03:17:54;99919.09;;;9.26;100.00
34925;BME280;21130;51.728;8.748;2022-10-22T03:20:21;99929.56;;;9.24;100.00
34925;BME280;21130;51.728;8.748;2022-10-22T03:22:48;99915.13;;;9.22;100.00
34925;BME280;21130;51.728;8.748;2022-10-22T03:25:16;99918.72;;;9.22;100.00
34925;BME280;21130;51.728;8.748;2022-10-22T03:27:45;99927.03;;;9.22;100.00
34925;BME280;21130;51.728;8.748;2022-10-22T03:30:12;99924.28;;;9.22;100.00
34925;BME280;21130;51.728;8.748;2022-10-22T03:32:39;99917.16;;;9.26;100.00
34925;BME280;21130;51.728;8.748;2022-10-22T03:35:06;99923.53;;;9.27;100.00
34925;BME280;21130;51.728;8.748;2022-10-22T03:37:35;99926.28;;;9.27;100.00
34925;BME280;21130;51.728;8.748;2022-10-22T03:40:02;99924.34;;;9.27;100.00
34925;BME280;21130;51.728;8.748;2022-10-22T03:42:29;99939.31;;;9.26;100.00
34925;BME280;21130;51.728;8.748;2022-10-22T03:44:56;99949.28;;;9.27;100.00
34925;BME280;21130;51.728;8.748;2022-10-22T03:47:22;99949.63;;;9.31;100.00
34925;BME280;21130;51.728;8.748;2022-10-22T03:49:49;99952.91;;;9.28;100.00
34925;BME280;21130;51.728;8.748;2022-10-22T03:52:16;99952.66;;;9.29;100.00
34925;BME280;21130;51.728;8.748;2022-10-22T03:58:06;99962.06;;;9.28;100.00
34925;BME280;21130;51.728;8.748;2022-10-22T04:00:34;99956.25;;;9.30;100.00
34925;BME280;21130;51.728;8.748;2022-10-22T04:03:00;99952.66;;;9.29;100.00
34925;BME280;21130;51.728;8.748;2022-10-22T04:05:27;99948.81;;;9.30;100.00
34925;BME280;21130;51.728;8.748;2022-10-22T04:07:53;99949.88;;;9.29;100.00
34925;BME280;21130;51.728;8.748;2022-10-22T04:10:20;99946.03;;;9.30;100.00
34925;BME280;21130;51.728;8.748;2022-10-22T04:12:46;99946.59;;;9.33;100.00
34925;BME280;21130;51.728;8.748;2022-10-22T04:15:14;99952.91;;;9.28;100.00
34925;BME280;21130;51.728;8.748;2022-10-22T04:17:41;99940.50;;;9.30;100.00
34925;BME280;21130;51.728;8.748;2022-10-22T04:20:09;99942.41;;;9.30;100.00
34925;BME280;21130;51.728;8.748;2022-10-22T04:22:36;99957.59;;;9.27;100.00
34925;BME280;21130;51.728;8.748;2022-10-22T04:25:04;99957.13;;;9.30;100.00
34925;BME280;21130;51.728;8.748;2022-10-22T04:27:32;99958.78;;;9.32;100.00
34925;BME280;21130;51.728;8.748;2022-10-22T04:29:59;99962.97;;;9.34;100.00
34925;BME280;21130;51.728;8.748;2022-10-22T04:32:27;99962.47;;;9.37;100.00
34925;BME280;21130;51.728;8.748;2022-10-22T04:34:53;99957.75;;;9.38;100.00
34925;BME280;21130;51.728;8.748;2022-10-22T04:37:20;99965.00;;;9.39;100.00
34925;BME280;21130;51.728;8.748;2022-10-22T04:40:14;99960.28;;;9.39;100.00
34925;BME280;21130;51.728;8.748;2022-10-22T04:43:05;99961.47;;;9.43;100.00
34925;BME280;21130;51.728;8.748;2022-10-22T04:45:59;99961.22;;;9.45;100.00
34925;BME280;21130;51.728;8.748;2022-10-22T04:48:27;99957.09;;;9.47;100.00
34925;BME280;21130;51.728;8.748;2022-10-22T04:50:55;99960.69;;;9.48;100.00
34925;BME280;21130;51.728;8.748;2022-10-22T04:53:22;99963.00;;;9.51;100.00
34925;BME280;21130;51.728;8.748;2022-10-22T04:55:48;99958.88;;;9.54;100.00
34925;BME280;21130;51.728;8.748;2022-10-22T04:58:15;99960.81;;;9.53;100.00
34925;BME280;21130;51.728;8.748;2022-10-22T05:00:42;99952.50;;;9.53;100.00
34925;BME280;21130;51.728;8.748;2022-10-22T05:03:08;99953.94;;;9.56;100.00
34925;BME280;21130;51.728;8.748;2022-10-22T05:05:36;99954.50;;;9.58;100.00
34925;BME280;21130;51.728;8.748;2022-10-22T05:08:03;99955.84;;;9.55;100.00
34925;BME280;21130;51.728;8.748;2022-10-22T05:10:29;99952.00;;;9.56;100.00
34925;BME280;21130;51.728;8.748;2022-10-22T05:12:56;99953.06;;;9.55;100.00
34925;BME280;21130;51.728;8.748;2022-10-22T05:15:22;99959.03;;;9.47;100.00
34925;BME280;21130;51.728;8.748;2022-10-22T05:17:48;99965.31;;;9.42;100.00
34925;BME280;21130;51.728;8.748;2022-10-22T05:20:15;99970.53;;;9.39;100.00
34925;BME280;21130;51.728;8.748;2022-10-22T05:22:43;99967.09;;;9.32;100.00
34925;BME280;21130;51.728;8.748;2022-10-22T05:25:09;99967.00;;;9.26;100.00
34925;BME280;21130;51.728;8.748;2022-10-22T05:27:36;99966.31;;;9.19;100.00
34925;BME280;21130;51.728;8.748;2022-10-22T05:30:04;99973.41;;;9.15;100.00
34925;BME280;21130;51.728;8.748;2022-10-22T05:32:31;99964.69;;;9.06;100.00
34925;BME280;21130;51.728;8.748;2022-10-22T05:34:57;99978.44;;;9.01;100.00
34925;BME280;21130;51.728;8.748;2022-10-22T05:37:23;99970.88;;;8.97;100.00
34925;BME280;21130;51.728;8.748;2022-10-22T05:39:51;99985.22;;;8.94;100.00
34925;BME280;21130;51.728;8.748;2022-10-22T05:42:18;99976.31;;;8.92;100.00
34925;BME280;21130;51.728;8.748;2022-10-22T05:44:44;99985.34;;;8.87;100.00
34925;BME280;21130;51.728;8.748;2022-10-22T05:47:11;99985.44;;;8.92;100.00
34925;BME280;21130;51.728;8.748;2022-10-22T05:49:38;99996.50;;;8.92;100.00
34925;BME280;21130;51.728;8.748;2022-10-22T05:52:04;99987.44;;;9.08;100.00
34925;BME280;21130;51.728;8.748;2022-10-22T05:54:31;99992.81;;;9.15;100.00
34925;BME280;21130;51.728;8.748;2022-10-22T05:56:58;100001.19;;;9.20;100.00
34925;BME280;21130;51.728;8.748;2022-10-22T05:59:25;99994.50;;;9.16;100.00
34925;BME280;21130;51.728;8.748;2022-10-22T06:01:52;100000.78;;;9.12;100.00
34925;BME280;21130;51.728;8.748;2022-10-22T06:04:18;100013.19;;;9.09;100.00
34925;BME280;21130;51.728;8.748;2022-10-22T06:06:46;100012.25;;;9.03;100.00
34925;BME280;21130;51.728;8.748;2022-10-22T06:09:16;100025.25;;;9.03;100.00
34925;BME280;21130;51.728;8.748;2022-10-22T06:11:43;100025.50;;;9.01;100.00
34925;BME280;21130;51.728;8.748;2022-10-22T06:14:12;100032.13;;;9.00;100.00
34925;BME280;21130;51.728;8.748;2022-10-22T06:16:38;100038.41;;;8.96;100.00
34925;BME280;21130;51.728;8.748;2022-10-22T06:19:06;100048.72;;;9.00;100.00
34925;BME280;21130;51.728;8.748;2022-10-22T06:21:33;100051.63;;;8.94;100.00
34925;BME280;21130;51.728;8.748;2022-10-22T06:24:00;100060.66;;;8.89;100.00
34925;BME280;21130;51.728;8.748;2022-10-22T06:26:27;100059.84;;;8.89;100.00
34925;BME280;21130;51.728;8.748;2022-10-22T06:28:54;100055.25;;;8.82;100.00
34925;BME280;21130;51.728;8.748;2022-10-22T06:31:23;100059.25;;;8.75;100.00
34925;BME280;21130;51.728;8.748;2022-10-22T06:33:49;100062.16;;;8.68;100.00
34925;BME280;21130;51.728;8.748;2022-10-22T06:36:19;100058.81;;;8.66;100.00
34925;BME280;21130;51.728;8.748;2022-10-22T06:38:46;100070.94;;;8.65;100.00
34925;BME280;21130;51.728;8.748;2022-10-22T06:41:14;100071.19;;;8.63;100.00
34925;BME280;21130;51.728;8.748;2022-10-22T06:43:42;100068.44;;;8.63;100.00
34925;BME280;21130;51.728;8.748;2022-10-22T06:46:11;100068.91;;;8.60;100.00
34925;BME280;21130;51.728;8.748;2022-10-22T06:48:39;100072.53;;;8.61;100.00
34925;BME280;21130;51.728;8.748;2022-10-22T06:51:09;100070.25;;;8.58;100.00
34925;BME280;21130;51.728;8.748;2022-10-22T06:53:37;100076.00;;;8.56;100.00
34925;BME280;21130;51.728;8.748;2022-10-22T06:56:04;100086.22;;;8.56;100.00
34925;BME280;21130;51.728;8.748;2022-10-22T06:58:31;100085.13;;;8.57;100.00
34925;BME280;21130;51.728;8.748;2022-10-22T07:01:00;100096.19;;;8.57;100.00
34925;BME280;21130;51.728;8.748;2022-10-22T07:03:27;100091.88;;;8.61;100.00
34925;BME280;21130;51.728;8.748;2022-10-22T07:05:58;100097.53;;;8.66;100.00
34925;BME280;21130;51.728;8.748;2022-10-22T07:08:27;100104.38;;;8.75;100.00
34925;BME280;21130;51.728;8.748;2022-10-22T07:10:54;100102.41;;;8.87;100.00
34925;BME280;21130;51.728;8.748;2022-10-22T07:13:22;100111.06;;;9.03;100.00
34925;BME280;21130;51.728;8.748;2022-10-22T07:15:51;100109.56;;;9.12;100.00
34925;BME280;21130;51.728;8.748;2022-10-22T07:18:19;100103.50;;;9.27;100.00
34925;BME280;21130;51.728;8.748;2022-10-22T07:20:46;100111.47;;;9.52;100.00
34925;BME280;21130;51.728;8.748;2022-10-22T07:23:21;100106.41;;;9.61;100.00
34925;BME280;21130;51.728;8.748;2022-10-22T07:25:47;100105.72;;;9.70;100.00
34925;BME280;21130;51.728;8.748;2022-10-22T07:28:14;100103.41;;;9.79;100.00
34925;BME280;21130;51.728;8.748;2022-10-22T07:30:40;100106.75;;;9.98;100.00
34925;BME280;21130;51.728;8.748;2022-10-22T07:33:07;100110.00;;;10.24;100.00
34925;BME280;21130;51.728;8.748;2022-10-22T07:35:35;100105.47;;;10.51;100.00
34925;BME280;21130;51.728;8.748;2022-10-22T07:38:02;100116.63;;;10.73;100.00
34925;BME280;21130;51.728;8.748;2022-10-22T07:40:30;100113.13;;;11.05;100.00
34925;BME280;21130;51.728;8.748;2022-10-22T07:42:56;100117.53;;;11.23;100.00
34925;BME280;21130;51.728;8.748;2022-10-22T07:45:26;100128.28;;;11.36;100.00
34925;BME280;21130;51.728;8.748;2022-10-22T07:47:52;100113.63;;;11.46;100.00
34925;BME280;21130;51.728;8.748;2022-10-22T07:50:19;100119.16;;;11.68;100.00
34925;BME280;21130;51.728;8.748;2022-10-22T07:52:46;100121.09;;;11.89;100.00
34925;BME280;21130;51.728;8.748;2022-10-22T07:55:13;100132.03;;;12.33;100.00
34925;BME280;21130;51.728;8.748;2022-10-22T07:57:40;100126.03;;;12.84;100.00
34925;BME280;21130;51.728;8.748;2022-10-22T08:00:08;100137.69;;;13.29;100.00
34925;BME280;21130;51.728;8.748;2022-10-22T08:02:36;100132.53;;;13.68;100.00
34925;BME280;21130;51.728;8.748;2022-10-22T08:05:03;100130.38;;;14.21;100.00
34925;BME280;21130;51.728;8.748;2022-10-22T08:07:29;100139.63;;;14.68;100.00
34925;BME280;21130;51.728;8.748;2022-10-22T08:09:56;100136.63;;;15.34;100.00
34925;BME280;21130;51.728;8.748;2022-10-22T08:12:22;100130.84;;;15.81;100.00
34925;BME280;21130;51.728;8.748;2022-10-22T08:14:50;100125.75;;;16.61;100.00
34925;BME280;21130;51.728;8.748;2022-10-22T08:17:17;100126.03;;;17.18;100.00
34925;BME280;21130;51.728;8.748;2022-10-22T08:19:43;100128.91;;;17.80;100.00
34925;BME280;21130;51.728;8.748;2022-10-22T08:22:10;100130.56;;;18.19;100.00
34925;BME280;21130;51.728;8.748;2022-10-22T08:24:36;100134.47;;;18.89;100.00
34925;BME280;21130;51.728;8.748;2022-10-22T08:27:03;100136.16;;;19.45;100.00
34925;BME280;21130;51.728;8.748;2022-10-22T08:29:29;100144.66;;;20.09;100.00
34925;BME280;21130;51.728;8.748;2022-10-22T08:31:57;100143.56;;;20.55;100.00
34925;BME280;21130;51.728;8.748;2022-10-22T08:34:24;100139.22;;;21.03;100.00
34925;BME280;21130;51.728;8.748;2022-10-22T08:36:50;100139.16;;;21.25;100.00
34925;BME280;21130;51.728;8.748;2022-10-22T08:39:20;100143.16;;;21.73;100.00
34925;BME280;21130;51.728;8.748;2022-10-22T08:41:53;100148.91;;;22.34;100.00
34925;BME280;21130;51.728;8.748;2022-10-22T08:44:40;100147.41;;;22.36;100.00
34925;BME280;21130;51.728;8.748;2022-10-22T08:47:20;100152.69;;;22.81;100.00
34925;BME280;21130;51.728;8.748;2022-10-22T08:49:52;100149.97;;;22.94;100.00
34925;BME280;21130;51.728;8.748;2022-10-22T08:52:21;100156.56;;;23.33;100.00
34925;BME280;21130;51.728;8.748;2022-10-22T08:54:52;100158.44;;;23.58;100.00
34925;BME280;21130;51.728;8.748;2022-10-22T08:57:33;100159.41;;;23.62;92.89
34925;BME280;21130;51.728;8.748;2022-10-22T09:00:10;100153.72;;;23.33;96.09
34925;BME280;21130;51.728;8.748;2022-10-22T09:02:48;100159.88;;;23.64;94.31
34925;BME280;21130;51.728;8.748;2022-10-22T09:05:30;100155.91;;;23.27;95.77
34925;BME280;21130;51.728;8.748;2022-10-22T09:07:58;100164.38;;;24.04;95.03
34925;BME280;21130;51.728;8.748;2022-10-22T09:10:30;100163.53;;;23.35;93.84
34925;BME280;21130;51.728;8.748;2022-10-22T09:12:58;100164.75;;;23.25;96.47
34925;BME280;21130;51.728;8.748;2022-10-22T09:15:25;100164.16;;;22.85;99.80
34925;BME280;21130;51.728;8.748;2022-10-22T09:18:01;100159.09;;;23.25;94.89
34925;BME280;21130;51.728;8.748;2022-10-22T09:20:38;100171.97;;;23.05;95.67
34925;BME280;21130;51.728;8.748;2022-10-22T09:23:19;100168.44;;;21.87;100.00
34925;BME280;21130;51.728;8.748;2022-10-22T09:25:47;100171.97;;;20.45;100.00
34925;BME280;21130;51.728;8.748;2022-10-22T09:28:15;100178.28;;;19.36;100.00
34925;BME280;21130;51.728;8.748;2022-10-22T09:30:42;100169.50;;;19.10;100.00
34925;BME280;21130;51.728;8.748;2022-10-22T09:33:14;100170.59;;;18.82;100.00
34925;BME280;21130;51.728;8.748;2022-10-22T09:35:46;100176.19;;;18.49;100.00
34925;BME280;21130;51.728;8.748;2022-10-22T09:38:15;100172.03;;;18.08;100.00
34925;BME280;21130;51.728;8.748;2022-10-22T09:40:43;100175.56;;;19.17;100.00
34925;BME280;21130;51.728;8.748;2022-10-22T09:43:12;100179.81;;;20.12;100.00
34925;BME280;21130;51.728;8.748;2022-10-22T09:45:39;100179.25;;;20.82;100.00
34925;BME280;21130;51.728;8.748;2022-10-22T09:48:17;100173.94;;;21.43;100.00
34925;BME280;21130;51.728;8.748;2022-10-22T09:50:48;100181.75;;;22.04;100.00
34925;BME280;21130;51.728;8.748;2022-10-22T09:53:18;100189.22;;;21.91;100.00
34925;BME280;21130;51.728;8.748;2022-10-22T09:55:50;100190.66;;;21.62;100.00
34925;BME280;21130;51.728;8.748;2022-10-22T09:58:18;100187.00;;;21.70;100.00
34925;BME280;21130;51.728;8.748;2022-10-22T10:00:47;100195.16;;;22.38;96.29
34925;BME280;21130;51.728;8.748;2022-10-22T10:03:19;100191.16;;;22.48;96.36
34925;BME280;21130;51.728;8.748;2022-10-22T10:05:48;100207.06;;;22.17;94.53
34925;BME280;21130;51.728;8.748;2022-10-22T10:08:16;100202.59;;;21.28;100.00
34925;BME280;21130;51.728;8.748;2022-10-22T10:10:46;100213.78;;;20.88;100.00
34925;BME280;21130;51.728;8.748;2022-10-22T10:13:39;100210.28;;;20.82;100.00
34925;BME280;21130;51.728;8.748;2022-10-22T10:16:15;100217.97;;;20.90;100.00
34925;BME280;21130;51.728;8.748;2022-10-22T10:19:00;100222.00;;;19.75;100.00
34925;BME280;21130;51.728;8.748;2022-10-22T10:21:38;100213.03;;;18.99;100.00
34925;BME280;21130;51.728;8.748;2022-10-22T10:24:16;100227.63;;;19.01;100.00
34925;BME280;21130;51.728;8.748;2022-10-22T10:26:51;100211.19;;;19.36;100.00
34925;BME280;21130;51.728;8.748;2022-10-22T10:29:29;100214.56;;;19.93;100.00
34925;BME280;21130;51.728;8.748;2022-10-22T10:33:32;100219.69;;;20.41;100.00
34925;BME280;21130;51.728;8.748;2022-10-22T10:36:07;100230.56;;;19.84;100.00
34925;BME280;21130;51.728;8.748;2022-10-22T10:38:42;100227.47;;;19.25;100.00
34925;BME280;21130;51.728;8.748;2022-10-22T10:41:19;100225.91;;;18.86;100.00
34925;BME280;21130;51.728;8.748;2022-10-22T10:44:23;100229.25;;;18.50;100.00
34925;BME280;21130;51.728;8.748;2022-10-22T10:47:02;100225.84;;;18.34;100.00
34925;BME280;21130;51.728;8.748;2022-10-22T10:49:34;100232.22;;;18.78;100.00
34925;BME280;21130;51.728;8.748;2022-10-22T10:52:07;100222.16;;;18.91;100.00
34925;BME280;21130;51.728;8.748;2022-10-22T10:54:43;100224.09;;;19.09;100.00
34925;BME280;21130;51.728;8.748;2022-10-22T10:57:21;100224.88;;;18.96;100.00
34925;BME280;21130;51.728;8.748;2022-10-22T10:59:59;100236.75;;;18.93;100.00
34925;BME280;21130;51.728;8.748;2022-10-22T11:03:10;100237.53;;;18.61;100.00
34925;BME280;21130;51.728;8.748;2022-10-22T11:05:49;100231.69;;;18.57;100.00
34925;BME280;21130;51.728;8.748;2022-10-22T11:08:20;100236.63;;;18.84;100.00
34925;BME280;21130;51.728;8.748;2022-10-22T11:10:51;100238.38;;;18.80;100.00
34925;BME280;21130;51.728;8.748;2022-10-22T11:13:27;100243.56;;;19.06;100.00
34925;BME280;21130;51.728;8.748;2022-10-22T11:15:59;100241.19;;;19.13;100.00
34925;BME280;21130;51.728;8.748;2022-10-22T11:18:32;100239.72;;;19.15;100.00
34925;BME280;21130;51.728;8.748;2022-10-22T11:21:07;100229.47;;;18.92;100.00
34925;BME280;21130;51.728;8.748;2022-10-22T11:23:40;100223.19;;;18.81;100.00
34925;BME280;21130;51.728;8.748;2022-10-22T11:26:14;100229.03;;;18.85;100.00
34925;BME280;21130;51.728;8.748;2022-10-22T11:28:45;100228.97;;;18.52;100.00
34925;BME280;21130;51.728;8.748;2022-10-22T11:31:15;100228.88;;;18.38;100.00
34925;BME280;21130;51.728;8.748;2022-10-22T11:33:50;100229.03;;;18.09;100.00
34925;BME280;21130;51.728;8.748;2022-10-22T11:36:21;100231.97;;;17.99;100.00
34925;BME280;21130;51.728;8.748;2022-10-22T11:38:49;100224.50;;;17.65;100.00
34925;BME280;21130;51.728;8.748;2022-10-22T11:41:18;100232.72;;;17.32;100.00
34925;BME280;21130;51.728;8.748;2022-10-22T11:43:55;100237.13;;;16.80;100.00
34925;BME280;21130;51.728;8.748;2022-10-22T11:46:33;100255.41;;;16.33;100.00
34925;BME280;21130;51.728;8.748;2022-10-22T11:49:02;100252.59;;;15.78;100.00
34925;BME280;21130;51.728;8.748;2022-10-22T11:51:33;100256.84;;;15.55;100.00
34925;BME280;21130;51.728;8.748;2022-10-22T11:54:01;100247.34;;;15.46;100.00
34925;BME280;21130;51.728;8.748;2022-10-22T11:56:36;100261.56;;;15.54;100.00
34925;BME280;21130;51.728;8.748;2022-10-22T11:59:33;100261.84;;;15.58;100.00
34925;BME280;21130;51.728;8.748;2022-10-22T12:02:22;100261.28;;;15.66;100.00
34925;BME280;21130;51.728;8.748;2022-10-22T12:04:49;100259.63;;;15.70;100.00
34925;BME280;21130;51.728;8.748;2022-10-22T12:07:32;100254.84;;;15.66;100.00
34925;BME280;21130;51.728;8.748;2022-10-22T12:10:04;100265.19;;;15.65;100.00
34925;BME280;21130;51.728;8.748;2022-10-22T12:12:34;100259.31;;;15.67;100.00
34925;BME280;21130;51.728;8.748;2022-10-22T12:15:20;100264.34;;;15.60;100.00
34925;BME280;21130;51.728;8.748;2022-10-22T12:17:48;100263.53;;;15.59;100.00
34925;BME280;21130;51.728;8.748;2022-10-22T12:20:15;100263.53;;;15.69;100.00
34925;BME280;21130;51.728;8.748;2022-10-22T12:22:44;100259.31;;;15.72;100.00
34925;BME280;21130;51.728;8.748;2022-10-22T12:25:16;100258.47;;;15.71;100.00
34925;BME280;21130;51.728;8.748;2022-10-22T12:27:49;100257.63;;;15.76;100.00
34925;BME280;21130;51.728;8.748;2022-10-22T12:30:19;100261.25;;;15.82;100.00
34925;BME280;21130;51.728;8.748;2022-10-22T12:32:50;100265.97;;;15.86;100.00
34925;BME280;21130;51.728;8.748;2022-10-22T12:35:20;100271.81;;;16.00;100.00
34925;BME280;21130;51.728;8.748;2022-10-22T12:37:50;100268.09;;;16.10;100.00
34925;BME280;21130;51.728;8.748;2022-10-22T12:40:19;100268.91;;;16.20;100.00
34925;BME280;21130;51.728;8.748;2022-10-22T12:42:48;100273.69;;;16.15;100.00
34925;BME280;21130;51.728;8.748;2022-10-22T12:45:16;100277.88;;;16.12;100.00
34925;BME280;21130;51.728;8.748;2022-10-22T12:47:45;100277.66;;;16.04;100.00
34925;BME280;21130;51.728;8.748;2022-10-22T12:50:17;100283.00;;;16.00;100.00
34925;BME280;21130;51.728;8.748;2022-10-22T12:52:44;100268.19;;;15.94;100.00
34925;BME280;21130;51.728;8.748;2022-10-22T12:55:16;100273.81;;;15.89;100.00
34925;BME280;21130;51.728;8.748;2022-10-22T12:57:45;100278.03;;;15.82;100.00
34925;BME280;21130;51.728;8.748;2022-10-22T13:00:36;100292.03;;;15.76;100.00
34925;BME280;21130;51.728;8.748;2022-10-22T13:03:06;100292.63;;;15.73;100.00
34925;BME280;21130;51.728;8.748;2022-10-22T13:05:33;100283.06;;;15.80;100.00
34925;BME280;21130;51.728;8.748;2022-10-22T13:08:08;100294.25;;;15.85;100.00
34925;BME280;21130;51.728;8.748;2022-10-22T13:10:38;100282.50;;;15.88;100.00
34925;BME280;21130;51.728;8.748;2022-10-22T13:13:04;100283.91;;;15.90;100.00